Time;durP1;ratioP1;P1;durP2;ratioP2;P2;SDS_P1;SDS_P2;PMS_P1;PMS_P2;Temp;Humidity;BMP_temperature;BMP_pressure;BME280_temperature;BME280_humidity;BME280_pressure;Samples;Min_cycle;Max_cycle;Signal;HPM_P1;HPM_P2
2022/10/29 00:00:08;;;;;;;1999.90;999.90;;;;;;;;;;5059601;28;20231;-73
2022/10/29 00:02:36;;;;;;;1999.90;999.90;;;;;;;;;;5063584;28;21135;-73
2022/10/29 00:05:04;;;;;;;1999.90;999.90;;;;;;;;;;5062214;28;20804;-73
2022/10/29 00:07:32;;;;;;;1999.90;999.90;;;;;;;;;;5063035;28;20294;-72
2022/10/29 00:10:00;;;;;;;1999.90;999.90;;;;;;;;;;5048619;28;20227;-71
2022/10/29 00:12:29;;;;;;;1999.90;999.90;;;;;;;;;;5064943;28;20235;-72
2022/10/29 00:14:57;;;;;;;1999.90;999.90;;;;;;;;;;5047236;28;20331;-71
2022/10/29 00:17:24;;;;;;;1999.90;999.90;;;;;;;;;;5062542;28;20875;-71
2022/10/29 00:19:52;;;;;;;1999.90;999.90;;;;;;;;;;5068143;28;20262;-71
2022/10/29 00:22:20;;;;;;;1999.90;999.90;;;;;;;;;;5048866;28;20231;-71
2022/10/29 00:24:48;;;;;;;1999.90;999.90;;;;;;;;;;5061111;28;20232;-73
2022/10/29 00:27:16;;;;;;;1999.90;999.90;;;;;;;;;;5061694;28;20224;-73
2022/10/29 00:29:44;;;;;;;1999.90;999.90;;;;;;;;;;5065042;28;20286;-72
2022/10/29 00:32:12;;;;;;;1999.90;999.90;;;;;;;;;;5064047;28;20239;-72
2022/10/29 00:34:40;;;;;;;1999.90;999.90;;;;;;;;;;5064986;28;20250;-72
2022/10/29 00:37:08;;;;;;;1999.90;999.90;;;;;;;;;;5065106;28;20240;-73
2022/10/29 00:39:35;;;;;;;1999.90;999.90;;;;;;;;;;5065186;28;20286;-73
2022/10/29 00:42:03;;;;;;;1999.90;999.90;;;;;;;;;;5046943;28;20302;-72
2022/10/29 00:44:34;;;;;;;1999.90;999.90;;;;;;;;;;5066208;28;20386;-73
2022/10/29 00:47:10;;;;;;;1999.90;999.90;;;;;;;;;;5066643;28;20236;-73
2022/10/29 00:49:38;;;;;;;1999.90;999.90;;;;;;;;;;5067577;28;20270;-72
2022/10/29 00:52:07;;;;;;;1999.90;999.90;;;;;;;;;;5065567;28;20935;-71
2022/10/29 00:54:35;;;;;;;1999.90;999.90;;;;;;;;;;5063816;28;20228;-72
2022/10/29 00:57:07;;;;;;;1999.90;999.90;;;;;;;;;;5065206;28;20231;-72
2022/10/29 00:59:35;;;;;;;1999.90;999.90;;;;;;;;;;5061213;28;20774;-73
2022/10/29 01:02:04;;;;;;;1999.90;999.90;;;;;;;;;;5064697;28;20232;-71
2022/10/29 01:04:32;;;;;;;1999.90;999.90;;;;;;;;;;5065502;28;20238;-72
2022/10/29 01:07:00;;;;;;;1999.90;999.90;;;;;;;;;;5067695;28;20309;-72
2022/10/29 01:09:28;;;;;;;1999.90;999.90;;;;;;;;;;5064523;28;20250;-70
2022/10/29 01:12:03;;;;;;;1999.90;999.90;;;;;;;;;;5064929;28;20224;-72
2022/10/29 01:14:35;;;;;;;1999.90;999.90;;;;;;;;;;5063345;28;20235;-73
2022/10/29 01:17:09;;;;;;;1999.90;999.90;;;;;;;;;;5063366;28;20231;-73
2022/10/29 01:19:49;;;;;;;1999.90;999.90;;;;;;;;;;5065299;28;20231;-72
2022/10/29 01:22:20;;;;;;;1999.90;999.90;;;;;;;;;;5064837;28;20226;-72
2022/10/29 01:25:04;;;;;;;1999.90;999.90;;;;;;;;;;5051295;28;20230;-72
2022/10/29 01:27:50;;;;;;;1999.90;999.90;;;;;;;;;;5064466;28;20291;-72
2022/10/29 01:30:23;;;;;;;1999.90;999.90;;;;;;;;;;5053133;28;20223;-73
2022/10/29 01:33:09;;;;;;;1999.90;999.90;;;;;;;;;;5064591;28;20326;-73
2022/10/29 01:35:43;;;;;;;1999.90;999.90;;;;;;;;;;5060872;28;20240;-72
2022/10/29 01:38:19;;;;;;;1999.90;999.90;;;;;;;;;;5063987;28;20223;-72
2022/10/29 01:40:52;;;;;;;1999.90;999.90;;;;;;;;;;5065459;28;20231;-72
2022/10/29 01:43:22;;;;;;;1999.90;999.90;;;;;;;;;;5060937;28;20235;-72
2022/10/29 01:45:53;;;;;;;1999.90;999.90;;;;;;;;;;5064506;28;20225;-72
2022/10/29 01:48:23;;;;;;;1999.90;999.90;;;;;;;;;;5062686;28;21050;-72
2022/10/29 01:51:00;;;;;;;1999.90;999.90;;;;;;;;;;5059790;28;20258;-72
2022/10/29 01:53:28;;;;;;;1999.90;999.90;;;;;;;;;;5059922;28;20235;-73
2022/10/29 01:55:56;;;;;;;1999.90;999.90;;;;;;;;;;5057635;28;20232;-73
2022/10/29 01:58:24;;;;;;;1999.90;999.90;;;;;;;;;;5062350;28;20318;-73
2022/10/29 02:00:58;;;;;;;1999.90;999.90;;;;;;;;;;5063360;28;20259;-73
2022/10/29 02:03:32;;;;;;;1999.90;999.90;;;;;;;;;;5062011;28;20234;-72
2022/10/29 02:06:05;;;;;;;1999.90;999.90;;;;;;;;;;5061212;28;20235;-73
2022/10/29 02:08:37;;;;;;;1999.90;999.90;;;;;;;;;;5060101;28;20235;-73
2022/10/29 02:11:08;;;;;;;1999.90;999.90;;;;;;;;;;5032552;28;21026;-72
2022/10/29 02:13:40;;;;;;;1999.90;999.90;;;;;;;;;;5061926;28;20236;-73
2022/10/29 02:16:09;;;;;;;1999.90;999.90;;;;;;;;;;5079765;28;20255;-73
2022/10/29 02:18:39;;;;;;;1999.90;999.90;;;;;;;;;;5061836;28;20267;-73
2022/10/29 02:21:08;;;;;;;1999.90;999.90;;;;;;;;;;5062250;28;20311;-73
2022/10/29 02:23:36;;;;;;;1999.90;999.90;;;;;;;;;;5064592;28;20259;-73
2022/10/29 02:26:03;;;;;;;1999.90;999.90;;;;;;;;;;5062724;28;20228;-73
2022/10/29 02:28:31;;;;;;;1999.90;999.90;;;;;;;;;;5064717;28;20278;-73
2022/10/29 02:30:59;;;;;;;1999.90;999.90;;;;;;;;;;5066062;28;20223;-73
2022/10/29 02:33:27;;;;;;;1999.90;999.90;;;;;;;;;;5064935;28;20239;-72
2022/10/29 02:35:54;;;;;;;1999.90;999.90;;;;;;;;;;5063235;28;20663;-73
2022/10/29 02:38:23;;;;;;;1999.90;999.90;;;;;;;;;;5044374;28;20227;-72
2022/10/29 02:40:51;;;;;;;1999.90;999.90;;;;;;;;;;5063095;28;20722;-73
2022/10/29 02:43:19;;;;;;;1999.90;999.90;;;;;;;;;;5062836;28;20228;-73
2022/10/29 02:45:46;;;;;;;1999.90;999.90;;;;;;;;;;5059291;28;21103;-73
2022/10/29 02:48:14;;;;;;;1999.90;999.90;;;;;;;;;;5063727;28;20231;-72
2022/10/29 02:50:42;;;;;;;1999.90;999.90;;;;;;;;;;5059385;28;20769;-73
2022/10/29 02:53:10;;;;;;;1999.90;999.90;;;;;;;;;;5044873;28;20713;-72
2022/10/29 02:55:39;;;;;;;1999.90;999.90;;;;;;;;;;5061382;28;20228;-73
2022/10/29 02:58:06;;;;;;;1999.90;999.90;;;;;;;;;;5062099;28;20328;-72
2022/10/29 03:00:35;;;;;;;1999.90;999.90;;;;;;;;;;5059671;28;20251;-72
2022/10/29 03:03:03;;;;;;;1999.90;999.90;;;;;;;;;;5061846;28;20298;-72
2022/10/29 03:05:31;;;;;;;1999.90;999.90;;;;;;;;;;5061463;28;21009;-71
2022/10/29 03:07:59;;;;;;;1999.90;999.90;;;;;;;;;;5063555;28;20232;-72
2022/10/29 03:10:27;;;;;;;1999.90;999.90;;;;;;;;;;5043341;28;20281;-71
2022/10/29 03:12:57;;;;;;;1999.90;999.90;;;;;;;;;;5061855;28;20238;-71
2022/10/29 03:15:25;;;;;;;1999.90;999.90;;;;;;;;;;5060534;28;20245;-72
2022/10/29 03:17:53;;;;;;;1999.90;999.90;;;;;;;;;;5062024;28;20227;-72
2022/10/29 03:20:21;;;;;;;1999.90;999.90;;;;;;;;;;5061146;28;20741;-73
2022/10/29 03:22:49;;;;;;;1999.90;999.90;;;;;;;;;;5063168;28;20236;-73
2022/10/29 03:25:16;;;;;;;1999.90;999.90;;;;;;;;;;5062823;28;20714;-72
2022/10/29 03:27:45;;;;;;;1999.90;999.90;;;;;;;;;;5059651;28;20231;-73
2022/10/29 03:30:15;;;;;;;1999.90;999.90;;;;;;;;;;5063237;28;20303;-73
2022/10/29 03:32:43;;;;;;;1999.90;999.90;;;;;;;;;;5064067;28;20702;-72
2022/10/29 03:35:12;;;;;;;1999.90;999.90;;;;;;;;;;5064495;28;20768;-73
2022/10/29 03:37:40;;;;;;;1999.90;999.90;;;;;;;;;;5064546;28;20246;-73
2022/10/29 03:40:08;;;;;;;1999.90;999.90;;;;;;;;;;5063835;28;20262;-73
2022/10/29 03:42:37;;;;;;;1999.90;999.90;;;;;;;;;;5067805;28;20244;-73
2022/10/29 03:45:05;;;;;;;1999.90;999.90;;;;;;;;;;5061453;28;20232;-72
2022/10/29 03:47:34;;;;;;;1999.90;999.90;;;;;;;;;;5066146;28;20243;-72
2022/10/29 03:50:02;;;;;;;1999.90;999.90;;;;;;;;;;5064582;28;20228;-73
2022/10/29 03:52:30;;;;;;;1999.90;999.90;;;;;;;;;;5065208;28;20223;-73
2022/10/29 03:54:57;;;;;;;1999.90;999.90;;;;;;;;;;5070303;28;20239;-72
2022/10/29 03:57:25;;;;;;;1999.90;999.90;;;;;;;;;;5065243;28;21018;-73
2022/10/29 03:59:53;;;;;;;1999.90;999.90;;;;;;;;;;5063917;28;20260;-72
2022/10/29 04:02:20;;;;;;;1999.90;999.90;;;;;;;;;;5047655;28;20220;-72
2022/10/29 04:04:50;;;;;;;1999.90;999.90;;;;;;;;;;5048549;28;20230;-71
2022/10/29 04:07:17;;;;;;;1999.90;999.90;;;;;;;;;;5047082;28;20228;-72
2022/10/29 04:09:45;;;;;;;1999.90;999.90;;;;;;;;;;5064523;28;20227;-72
2022/10/29 04:12:13;;;;;;;1999.90;999.90;;;;;;;;;;5063718;28;20358;-72
2022/10/29 04:14:41;;;;;;;1999.90;999.90;;;;;;;;;;5063118;28;20349;-72
2022/10/29 04:17:12;;;;;;;1999.90;999.90;;;;;;;;;;5064965;28;20240;-71
2022/10/29 04:19:40;;;;;;;1999.90;999.90;;;;;;;;;;5065632;28;20282;-72
2022/10/29 04:22:09;;;;;;;1999.90;999.90;;;;;;;;;;5063005;28;20235;-72
2022/10/29 04:24:57;;;;;;;1999.90;999.90;;;;;;;;;;5063992;28;20247;-72
2022/10/29 04:27:45;;;;;;;1999.90;999.90;;;;;;;;;;5064353;28;20235;-71
2022/10/29 04:30:32;;;;;;;1999.90;999.90;;;;;;;;;;5061719;28;20239;-72
2022/10/29 04:33:00;;;;;;;1999.90;999.90;;;;;;;;;;5066259;28;20228;-71
2022/10/29 04:35:28;;;;;;;1999.90;999.90;;;;;;;;;;5063985;28;20242;-72
2022/10/29 04:37:57;;;;;;;1999.90;999.90;;;;;;;;;;5062197;28;20227;-71
2022/10/29 04:40:25;;;;;;;1999.90;999.90;;;;;;;;;;5062995;28;20309;-71
2022/10/29 04:42:53;;;;;;;1999.90;999.90;;;;;;;;;;5064845;28;20378;-71
2022/10/29 04:45:21;;;;;;;1999.90;999.90;;;;;;;;;;5062548;28;20220;-72
2022/10/29 04:47:49;;;;;;;1999.90;999.90;;;;;;;;;;5066036;28;20232;-71
2022/10/29 04:50:17;;;;;;;1999.90;999.90;;;;;;;;;;5063421;28;20224;-71
2022/10/29 04:52:45;;;;;;;1999.90;999.90;;;;;;;;;;5060496;28;20239;-71
2022/10/29 04:55:14;;;;;;;1999.90;999.90;;;;;;;;;;5065506;28;20236;-71
2022/10/29 04:57:42;;;;;;;1999.90;999.90;;;;;;;;;;5062188;28;20232;-71
2022/10/29 05:00:10;;;;;;;1999.90;999.90;;;;;;;;;;5063395;28;20716;-72
2022/10/29 05:02:47;;;;;;;1999.90;999.90;;;;;;;;;;5046568;28;20255;-71
2022/10/29 05:05:15;;;;;;;1999.90;999.90;;;;;;;;;;5065223;28;20284;-71
2022/10/29 05:07:43;;;;;;;1999.90;999.90;;;;;;;;;;5062838;28;20722;-71
2022/10/29 05:10:11;;;;;;;1999.90;999.90;;;;;;;;;;5061226;28;20227;-72
2022/10/29 05:12:40;;;;;;;1999.90;999.90;;;;;;;;;;5047328;28;20239;-73
2022/10/29 05:15:08;;;;;;;1999.90;999.90;;;;;;;;;;5064360;28;20801;-73
2022/10/29 05:17:36;;;;;;;1999.90;999.90;;;;;;;;;;5063174;28;20239;-74
2022/10/29 05:20:04;;;;;;;1999.90;999.90;;;;;;;;;;5060942;28;21252;-74
2022/10/29 05:22:32;;;;;;;1999.90;999.90;;;;;;;;;;5065133;28;20311;-74
2022/10/29 05:25:00;;;;;;;1999.90;999.90;;;;;;;;;;5065124;28;20757;-73
2022/10/29 05:27:28;;;;;;;1999.90;999.90;;;;;;;;;;5064789;28;20236;-80
2022/10/29 05:29:57;;;;;;;1999.90;999.90;;;;;;;;;;5062347;28;20240;-75
2022/10/29 05:32:24;;;;;;;1999.90;999.90;;;;;;;;;;5064529;28;20655;-75
2022/10/29 05:34:52;;;;;;;1999.90;999.90;;;;;;;;;;5064197;28;20279;-77
2022/10/29 05:37:20;;;;;;;1999.90;999.90;;;;;;;;;;5066673;28;20325;-76
2022/10/29 05:39:48;;;;;;;1999.90;999.90;;;;;;;;;;5063295;28;20247;-77
2022/10/29 05:42:15;;;;;;;1999.90;999.90;;;;;;;;;;5064513;28;20582;-77
2022/10/29 05:44:43;;;;;;;1999.90;999.90;;;;;;;;;;5064107;28;20231;-75
2022/10/29 05:47:12;;;;;;;1999.90;999.90;;;;;;;;;;5063625;28;20258;-77
2022/10/29 05:49:40;;;;;;;1999.90;999.90;;;;;;;;;;5060208;28;20326;-75
2022/10/29 05:52:07;;;;;;;1999.90;999.90;;;;;;;;;;5064241;28;20342;-76
2022/10/29 05:54:35;;;;;;;1999.90;999.90;;;;;;;;;;5060958;28;20249;-76
2022/10/29 05:57:03;;;;;;;1999.90;999.90;;;;;;;;;;5043850;28;20706;-76
2022/10/29 05:59:31;;;;;;;1999.90;999.90;;;;;;;;;;5059515;28;20231;-74
2022/10/29 06:02:00;;;;;;;1999.90;999.90;;;;;;;;;;5063029;28;20787;-75
2022/10/29 06:04:29;;;;;;;1999.90;999.90;;;;;;;;;;5062792;28;20232;-75
2022/10/29 06:06:57;;;;;;;1999.90;999.90;;;;;;;;;;5078913;28;20982;-75
2022/10/29 06:09:25;;;;;;;1999.90;999.90;;;;;;;;;;5062432;28;20224;-74
2022/10/29 06:11:54;;;;;;;1999.90;999.90;;;;;;;;;;5064726;28;20251;-74
2022/10/29 06:14:21;;;;;;;1999.90;999.90;;;;;;;;;;5060815;28;20237;-77
2022/10/29 06:16:49;;;;;;;1999.90;999.90;;;;;;;;;;5064487;28;20244;-75
2022/10/29 06:19:17;;;;;;;1999.90;999.90;;;;;;;;;;5063787;28;20224;-75
2022/10/29 06:21:46;;;;;;;1999.90;999.90;;;;;;;;;;5062130;28;20235;-74
2022/10/29 06:24:14;;;;;;;1999.90;999.90;;;;;;;;;;5064382;28;20238;-77
2022/10/29 06:26:41;;;;;;;1999.90;999.90;;;;;;;;;;5059737;28;20777;-75
2022/10/29 06:29:09;;;;;;;1999.90;999.90;;;;;;;;;;5062622;28;20851;-74
2022/10/29 06:31:37;;;;;;;1999.90;999.90;;;;;;;;;;5061162;28;20243;-75
2022/10/29 06:34:04;;;;;;;1999.90;999.90;;;;;;;;;;5062999;28;20254;-75
2022/10/29 06:36:32;;;;;;;1999.90;999.90;;;;;;;;;;5060965;28;20243;-77
2022/10/29 06:39:01;;;;;;;1999.90;999.90;;;;;;;;;;5062961;28;20314;-76
2022/10/29 06:41:29;;;;;;;1999.90;999.90;;;;;;;;;;5077102;28;20363;-76
2022/10/29 06:43:57;;;;;;;1999.90;999.90;;;;;;;;;;5064588;28;20262;-77
2022/10/29 06:46:25;;;;;;;1999.90;999.90;;;;;;;;;;5061839;28;21532;-77
2022/10/29 06:48:52;;;;;;;1999.90;999.90;;;;;;;;;;5063467;28;21224;-76
2022/10/29 06:51:21;;;;;;;1999.90;999.90;;;;;;;;;;5059248;28;20289;-74
2022/10/29 06:53:54;;;;;;;1999.90;999.90;;;;;;;;;;5062217;28;20227;-76
2022/10/29 06:56:23;;;;;;;1999.90;999.90;;;;;;;;;;5060186;28;20289;-75
2022/10/29 06:58:51;;;;;;;1999.90;999.90;;;;;;;;;;5062003;28;20236;-77
2022/10/29 07:01:19;;;;;;;1999.90;999.90;;;;;;;;;;5056370;28;20779;-75
2022/10/29 07:03:46;;;;;;;1999.90;999.90;;;;;;;;;;5056626;28;20228;-75
2022/10/29 07:06:14;;;;;;;1999.90;999.90;;;;;;;;;;5063301;28;21596;-75
2022/10/29 07:08:42;;;;;;;1999.90;999.90;;;;;;;;;;5061138;28;20743;-77
2022/10/29 07:11:09;;;;;;;1999.90;999.90;;;;;;;;;;5058371;28;20319;-78
2022/10/29 07:13:39;;;;;;;1999.90;999.90;;;;;;;;;;5059273;28;20931;-76
2022/10/29 07:16:07;;;;;;;1999.90;999.90;;;;;;;;;;5059248;28;20741;-76
2022/10/29 07:18:35;;;;;;;1999.90;999.90;;;;;;;;;;5057089;28;20757;-75
2022/10/29 07:21:03;;;;;;;1999.90;999.90;;;;;;;;;;5061483;28;20231;-75
2022/10/29 07:23:31;;;;;;;1999.90;999.90;;;;;;;;;;5059989;28;20729;-75
2022/10/29 07:25:59;;;;;;;1999.90;999.90;;;;;;;;;;5059053;28;20243;-75
2022/10/29 07:28:26;;;;;;;1999.90;999.90;;;;;;;;;;5058195;28;20242;-72
2022/10/29 07:30:58;;;;;;;1999.90;999.90;;;;;;;;;;5059346;28;20271;-71
2022/10/29 07:33:27;;;;;;;1999.90;999.90;;;;;;;;;;5057223;28;20223;-72
2022/10/29 07:35:56;;;;;;;1999.90;999.90;;;;;;;;;;5059563;28;20323;-71
2022/10/29 07:38:24;;;;;;;1999.90;999.90;;;;;;;;;;5059362;28;20267;-78
2022/10/29 07:40:52;;;;;;;1999.90;999.90;;;;;;;;;;5064716;28;20220;-76
2022/10/29 07:43:20;;;;;;;1999.90;999.90;;;;;;;;;;5062269;28;20749;-76
2022/10/29 07:45:49;;;;;;;1999.90;999.90;;;;;;;;;;5057922;28;20232;-75
2022/10/29 07:48:19;;;;;;;1999.90;999.90;;;;;;;;;;5061083;28;20277;-74
2022/10/29 07:50:46;;;;;;;1999.90;999.90;;;;;;;;;;5060467;28;20303;-76
2022/10/29 07:53:14;;;;;;;1999.90;999.90;;;;;;;;;;5060422;28;20401;-73
2022/10/29 07:55:42;;;;;;;1999.90;999.90;;;;;;;;;;5063926;28;20263;-74
2022/10/29 07:58:11;;;;;;;1999.90;999.90;;;;;;;;;;5063146;28;20239;-74
2022/10/29 08:00:39;;;;;;;1999.90;999.90;;;;;;;;;;5057485;28;20228;-75
2022/10/29 08:03:08;;;;;;;1999.90;999.90;;;;;;;;;;5067189;28;20224;-75
2022/10/29 08:05:37;;;;;;;1999.90;999.90;;;;;;;;;;5065279;28;20802;-75
2022/10/29 08:08:05;;;;;;;1999.90;999.90;;;;;;;;;;5060282;28;20796;-75
2022/10/29 08:10:33;;;;;;;1999.90;999.90;;;;;;;;;;5062298;28;20315;-76
2022/10/29 08:13:03;;;;;;;1999.90;999.90;;;;;;;;;;5074545;28;20278;-75
2022/10/29 08:15:32;;;;;;;1999.90;999.90;;;;;;;;;;5062986;28;21300;-75
2022/10/29 08:17:59;;;;;;;1999.90;999.90;;;;;;;;;;5061440;28;20230;-75
2022/10/29 08:20:28;;;;;;;1999.90;999.90;;;;;;;;;;5062598;28;20734;-76
2022/10/29 08:22:58;;;;;;;1999.90;999.90;;;;;;;;;;5061334;28;20224;-76
2022/10/29 08:25:26;;;;;;;1999.90;999.90;;;;;;;;;;5059426;28;20330;-76
2022/10/29 08:27:58;;;;;;;1999.90;999.90;;;;;;;;;;5079346;28;20267;-76
2022/10/29 08:30:26;;;;;;;1999.90;999.90;;;;;;;;;;5065636;28;20319;-77
2022/10/29 08:32:54;;;;;;;1999.90;999.90;;;;;;;;;;5068050;28;20231;-75
2022/10/29 08:35:22;;;;;;;1999.90;999.90;;;;;;;;;;5064966;28;20228;-75
2022/10/29 08:37:50;;;;;;;1999.90;999.90;;;;;;;;;;5062755;28;21091;-77
2022/10/29 08:40:26;;;;;;;1999.90;999.90;;;;;;;;;;5065027;28;21248;-77
2022/10/29 08:42:59;;;;;;;1999.90;999.90;;;;;;;;;;5066420;28;20220;-77
2022/10/29 08:45:31;;;;;;;1999.90;999.90;;;;;;;;;;5069288;28;20316;-77
2022/10/29 08:48:17;;;;;;;1999.90;999.90;;;;;;;;;;5062809;28;20714;-77
2022/10/29 08:50:47;;;;;;;1999.90;999.90;;;;;;;;;;5062747;28;20224;-74
2022/10/29 08:53:15;;;;;;;1999.90;999.90;;;;;;;;;;5047611;28;20232;-76
2022/10/29 08:55:52;;;;;;;1999.90;999.90;;;;;;;;;;5060785;28;20227;-77
2022/10/29 08:58:24;;;;;;;1999.90;999.90;;;;;;;;;;5065948;28;20231;-77
2022/10/29 09:00:54;;;;;;;1999.90;999.90;;;;;;;;;;5060118;28;20235;-77
2022/10/29 09:03:21;;;;;;;1999.90;999.90;;;;;;;;;;5064028;28;20611;-77
2022/10/29 09:05:51;;;;;;;1999.90;999.90;;;;;;;;;;5067058;28;20238;-76
2022/10/29 09:08:25;;;;;;;1999.90;999.90;;;;;;;;;;5066452;28;20232;-76
2022/10/29 09:10:55;;;;;;;1999.90;999.90;;;;;;;;;;5065814;28;20319;-77
2022/10/29 09:13:32;;;;;;;1999.90;999.90;;;;;;;;;;5048916;28;21041;-77
2022/10/29 09:16:06;;;;;;;1999.90;999.90;;;;;;;;;;5067202;28;20235;-76
2022/10/29 09:18:41;;;;;;;1999.90;999.90;;;;;;;;;;5062905;28;20268;-77
2022/10/29 09:21:18;;;;;;;1999.90;999.90;;;;;;;;;;5063976;28;20223;-77
2022/10/29 09:23:52;;;;;;;1999.90;999.90;;;;;;;;;;5066687;28;20232;-77
2022/10/29 09:26:26;;;;;;;1999.90;999.90;;;;;;;;;;5063796;28;20725;-77
2022/10/29 09:28:58;;;;;;;1999.90;999.90;;;;;;;;;;5066687;28;20263;-78
2022/10/29 09:31:29;;;;;;;1999.90;999.90;;;;;;;;;;5072853;28;21088;-73
2022/10/29 09:34:02;;;;;;;1999.90;999.90;;;;;;;;;;5064115;28;20234;-75
2022/10/29 09:36:30;;;;;;;1999.90;999.90;;;;;;;;;;5062185;28;20259;-75
2022/10/29 09:39:01;;;;;;;1999.90;999.90;;;;;;;;;;5065368;28;20232;-75
2022/10/29 09:41:32;;;;;;;1999.90;999.90;;;;;;;;;;5062598;28;20290;-75
2022/10/29 09:44:01;;;;;;;1999.90;999.90;;;;;;;;;;5068282;28;20757;-75
2022/10/29 09:46:35;;;;;;;1999.90;999.90;;;;;;;;;;5061131;28;22580;-75
2022/10/29 09:49:09;;;;;;;1999.90;999.90;;;;;;;;;;5066440;28;20293;-77
2022/10/29 09:51:41;;;;;;;1999.90;999.90;;;;;;;;;;5066770;28;20241;-75
2022/10/29 09:54:09;;;;;;;1999.90;999.90;;;;;;;;;;5065231;28;20239;-76
2022/10/29 09:56:39;;;;;;;1999.90;999.90;;;;;;;;;;5039670;28;20225;-75
2022/10/29 09:59:11;;;;;;;1999.90;999.90;;;;;;;;;;5065920;28;20297;-76
2022/10/29 10:01:39;;;;;;;1999.90;999.90;;;;;;;;;;5067536;28;20327;-76
2022/10/29 10:04:14;;;;;;;1999.90;999.90;;;;;;;;;;5050194;28;20228;-76
2022/10/29 10:06:56;;;;;;;1999.90;999.90;;;;;;;;;;5059733;28;20228;-75
2022/10/29 10:09:24;;;;;;;1999.90;999.90;;;;;;;;;;5063372;28;20325;-74
2022/10/29 10:11:57;;;;;;;1999.90;999.90;;;;;;;;;;5065294;28;20659;-75
2022/10/29 10:14:26;;;;;;;1999.90;999.90;;;;;;;;;;5063964;28;20224;-75
2022/10/29 10:16:56;;;;;;;1999.90;999.90;;;;;;;;;;5046335;28;20232;-76
2022/10/29 10:19:26;;;;;;;1999.90;999.90;;;;;;;;;;5071810;28;20311;-76
2022/10/29 10:21:58;;;;;;;1999.90;999.90;;;;;;;;;;5063840;28;20227;-76
2022/10/29 10:24:30;;;;;;;1999.90;999.90;;;;;;;;;;5066904;28;20281;-76
2022/10/29 10:26:59;;;;;;;1999.90;999.90;;;;;;;;;;5064800;28;20726;-74
2022/10/29 10:29:27;;;;;;;1999.90;999.90;;;;;;;;;;5063673;28;20766;-76
2022/10/29 10:32:10;;;;;;;1999.90;999.90;;;;;;;;;;5062237;28;20328;-76
2022/10/29 10:34:38;;;;;;;1999.90;999.90;;;;;;;;;;5060300;28;20226;-76
2022/10/29 10:37:11;;;;;;;1999.90;999.90;;;;;;;;;;5063051;28;20327;-75
2022/10/29 10:39:39;;;;;;;1999.90;999.90;;;;;;;;;;5060712;28;20737;-74
2022/10/29 10:42:16;;;;;;;1999.90;999.90;;;;;;;;;;5062496;28;20294;-75
2022/10/29 10:44:47;;;;;;;1999.90;999.90;;;;;;;;;;5057899;28;20228;-75
2022/10/29 10:47:17;;;;;;;1999.90;999.90;;;;;;;;;;5058278;28;20231;-75
2022/10/29 10:49:45;;;;;;;1999.90;999.90;;;;;;;;;;5056861;28;20239;-75
2022/10/29 10:52:16;;;;;;;1999.90;999.90;;;;;;;;;;5080027;28;20234;-75
2022/10/29 10:54:45;;;;;;;1999.90;999.90;;;;;;;;;;5063065;28;21086;-75
2022/10/29 10:57:21;;;;;;;1999.90;999.90;;;;;;;;;;5065009;28;21164;-75
2022/10/29 10:59:54;;;;;;;1999.90;999.90;;;;;;;;;;5068256;28;20243;-76
2022/10/29 11:02:25;;;;;;;1999.90;999.90;;;;;;;;;;5082080;28;20318;-77
2022/10/29 11:04:56;;;;;;;1999.90;999.90;;;;;;;;;;5060089;28;20243;-75
2022/10/29 11:07:30;;;;;;;1999.90;999.90;;;;;;;;;;5067554;28;21077;-76
2022/10/29 11:09:59;;;;;;;1999.90;999.90;;;;;;;;;;5066774;28;20249;-76
2022/10/29 11:12:31;;;;;;;1999.90;999.90;;;;;;;;;;5062702;28;20255;-76
2022/10/29 11:15:01;;;;;;;1999.90;999.90;;;;;;;;;;5060021;28;20429;-75
2022/10/29 11:17:31;;;;;;;1999.90;999.90;;;;;;;;;;5063267;28;20302;-74
2022/10/29 11:20:01;;;;;;;1999.90;999.90;;;;;;;;;;5060332;28;20318;-75
2022/10/29 11:22:32;;;;;;;1999.90;999.90;;;;;;;;;;5064714;28;20235;-75
2022/10/29 11:25:02;;;;;;;1999.90;999.90;;;;;;;;;;5054617;28;20899;-75
2022/10/29 11:27:34;;;;;;;1999.90;999.90;;;;;;;;;;5063772;28;20344;-76
2022/10/29 11:30:03;;;;;;;1999.90;999.90;;;;;;;;;;5065701;28;20273;-75
2022/10/29 11:32:38;;;;;;;1999.90;999.90;;;;;;;;;;5061847;28;20946;-76
2022/10/29 11:35:09;;;;;;;1999.90;999.90;;;;;;;;;;5057491;28;20787;-75
2022/10/29 11:37:40;;;;;;;1999.90;999.90;;;;;;;;;;5053432;28;20431;-74
2022/10/29 11:40:12;;;;;;;1999.90;999.90;;;;;;;;;;5058354;28;20227;-75
2022/10/29 11:42:42;;;;;;;1999.90;999.90;;;;;;;;;;5058278;28;20319;-75
2022/10/29 11:45:11;;;;;;;1999.90;999.90;;;;;;;;;;5060171;28;21106;-75
2022/10/29 11:47:44;;;;;;;1999.90;999.90;;;;;;;;;;5057005;28;20231;-75
2022/10/29 11:50:20;;;;;;;1999.90;999.90;;;;;;;;;;5054553;28;20239;-75
2022/10/29 11:52:53;;;;;;;1999.90;999.90;;;;;;;;;;5058614;28;20231;-76
2022/10/29 11:55:28;;;;;;;1999.90;999.90;;;;;;;;;;5044695;28;20224;-76
2022/10/29 11:57:59;;;;;;;1999.90;999.90;;;;;;;;;;5059718;28;20236;-75
2022/10/29 12:00:31;;;;;;;1999.90;999.90;;;;;;;;;;5059050;28;20232;-76
2022/10/29 12:03:17;;;;;;;1999.90;999.90;;;;;;;;;;5066422;28;20277;-77
2022/10/29 12:05:50;;;;;;;1999.90;999.90;;;;;;;;;;5051461;28;20227;-77
2022/10/29 12:08:23;;;;;;;1999.90;999.90;;;;;;;;;;5045254;28;20232;-77
2022/10/29 12:10:54;;;;;;;1999.90;999.90;;;;;;;;;;5059710;28;20311;-77
2022/10/29 12:13:27;;;;;;;1999.90;999.90;;;;;;;;;;5059701;28;20660;-77
2022/10/29 12:16:01;;;;;;;1999.90;999.90;;;;;;;;;;5059332;28;20676;-78
2022/10/29 12:18:33;;;;;;;1999.90;999.90;;;;;;;;;;5065588;28;20270;-77
2022/10/29 12:21:04;;;;;;;1999.90;999.90;;;;;;;;;;5063311;28;20669;-76
2022/10/29 12:23:36;;;;;;;1999.90;999.90;;;;;;;;;;5065280;28;20793;-77
2022/10/29 12:26:07;;;;;;;1999.90;999.90;;;;;;;;;;5059369;28;20772;-77
2022/10/29 12:28:41;;;;;;;1999.90;999.90;;;;;;;;;;5065836;28;20766;-78
2022/10/29 12:31:15;;;;;;;1999.90;999.90;;;;;;;;;;5065243;28;20232;-75
2022/10/29 12:33:46;;;;;;;1999.90;999.90;;;;;;;;;;5063446;28;20852;-75
2022/10/29 12:36:16;;;;;;;1999.90;999.90;;;;;;;;;;5071685;28;20265;-76
2022/10/29 12:38:47;;;;;;;1999.90;999.90;;;;;;;;;;5066581;28;20278;-74
2022/10/29 12:41:17;;;;;;;1999.90;999.90;;;;;;;;;;5064468;28;20227;-76
2022/10/29 12:43:46;;;;;;;1999.90;999.90;;;;;;;;;;5070051;28;20224;-75
2022/10/29 12:46:19;;;;;;;1999.90;999.90;;;;;;;;;;5067589;28;20235;-77
2022/10/29 12:48:53;;;;;;;1999.90;999.90;;;;;;;;;;5065394;28;20298;-75
2022/10/29 12:51:24;;;;;;;1999.90;999.90;;;;;;;;;;5061281;28;20239;-75
2022/10/29 12:54:01;;;;;;;1999.90;999.90;;;;;;;;;;5065050;28;20869;-75
2022/10/29 12:56:29;;;;;;;1999.90;999.90;;;;;;;;;;5062269;28;20285;-76
2022/10/29 12:59:18;;;;;;;1999.90;999.90;;;;;;;;;;5064714;28;20282;-77
2022/10/29 13:01:46;;;;;;;1999.90;999.90;;;;;;;;;;5070839;28;20255;-76
2022/10/29 13:04:34;;;;;;;1999.90;999.90;;;;;;;;;;5064448;28;20302;-77
2022/10/29 13:07:03;;;;;;;1999.90;999.90;;;;;;;;;;5059043;28;21083;-76
2022/10/29 13:09:32;;;;;;;1999.90;999.90;;;;;;;;;;5061718;28;20239;-76
2022/10/29 13:12:01;;;;;;;1999.90;999.90;;;;;;;;;;5062540;28;20225;-76
2022/10/29 13:14:39;;;;;;;1999.90;999.90;;;;;;;;;;5064505;28;20718;-75
2022/10/29 13:17:19;;;;;;;1999.90;999.90;;;;;;;;;;5062376;28;20224;-76
2022/10/29 13:19:50;;;;;;;1999.90;999.90;;;;;;;;;;5064347;28;20242;-75
2022/10/29 13:22:34;;;;;;;1999.90;999.90;;;;;;;;;;5058351;28;20690;-76
2022/10/29 13:25:21;;;;;;;1999.90;999.90;;;;;;;;;;5063801;28;20734;-77
2022/10/29 13:27:49;;;;;;;1999.90;999.90;;;;;;;;;;5060911;28;20236;-76
2022/10/29 13:30:20;;;;;;;1999.90;999.90;;;;;;;;;;5059158;28;20223;-76
2022/10/29 13:32:48;;;;;;;1999.90;999.90;;;;;;;;;;5066307;28;20223;-76
2022/10/29 13:35:34;;;;;;;1999.90;999.90;;;;;;;;;;5062084;28;20232;-76
2022/10/29 13:38:14;;;;;;;1999.90;999.90;;;;;;;;;;5046064;28;20256;-76
2022/10/29 13:40:56;;;;;;;1999.90;999.90;;;;;;;;;;5067413;28;20254;-75
2022/10/29 13:43:23;;;;;;;1999.90;999.90;;;;;;;;;;5064152;28;20224;-76
2022/10/29 13:46:08;;;;;;;1999.90;999.90;;;;;;;;;;5063421;28;20232;-76
2022/10/29 13:48:37;;;;;;;1999.90;999.90;;;;;;;;;;5063574;28;20646;-76
2022/10/29 13:51:07;;;;;;;1999.90;999.90;;;;;;;;;;5066267;28;20737;-76
2022/10/29 13:53:38;;;;;;;1999.90;999.90;;;;;;;;;;5061531;28;20733;-76
2022/10/29 13:56:08;;;;;;;1999.90;999.90;;;;;;;;;;5063728;28;20466;-76
2022/10/29 13:58:37;;;;;;;1999.90;999.90;;;;;;;;;;5065642;28;21336;-76